Time;durP1;ratioP1;P1;durP2;ratioP2;P2;SDS_P1;SDS_P2;PMS_P1;PMS_P2;Temp;Humidity;BMP_temperature;BMP_pressure;BME280_temperature;BME280_humidity;BME280_pressure;Samples;Min_cycle;Max_cycle;Signal;HPM_P1;HPM_P2
2023/08/12 00:06:35;;;;;;;5.60;3.60;;;;;;;25.90;100.00;99722.72;31181402;28;20049;-73
2023/08/12 00:21:37;;;;;;;11.13;3.33;;;;;;;26.07;100.00;99767.66;31175314;28;20080;-73
2023/08/12 00:36:39;;;;;;;6.70;3.00;;;;;;;25.74;100.00;99743.25;31169457;28;20156;-74
2023/08/12 00:51:43;;;;;;;5.82;4.50;;;;;;;25.81;100.00;99745.38;31193866;28;20053;-73
2023/08/12 01:06:45;;;;;;;6.38;4.32;;;;;;;25.71;100.00;99735.97;31164253;28;20068;-74
2023/08/12 01:21:52;;;;;;;9.75;4.60;;;;;;;25.61;100.00;99743.19;31208853;28;20124;-72
2023/08/12 01:36:56;;;;;;;7.28;5.80;;;;;;;25.58;100.00;99738.69;31197424;28;20076;-73
2023/08/12 01:51:58;;;;;;;10.07;7.30;;;;;;;25.57;100.00;99742.72;31219551;28;20084;-73
2023/08/12 02:07:00;;;;;;;10.55;6.90;;;;;;;25.65;100.00;99760.31;31177816;28;20145;-73
2023/08/12 02:22:03;;;;;;;12.15;7.28;;;;;;;25.87;100.00;99787.75;31210341;28;20053;-74
2023/08/12 02:37:05;;;;;;;10.43;7.27;;;;;;;25.76;100.00;99810.16;31204636;28;20479;-75
2023/08/12 02:52:07;;;;;;;11.50;7.60;;;;;;;25.59;100.00;99823.56;31210855;28;20061;-73
2023/08/12 03:07:09;;;;;;;12.65;9.00;;;;;;;25.60;100.00;99838.94;31179527;28;20053;-73
2023/08/12 03:22:12;;;;;;;12.80;8.37;;;;;;;25.97;100.00;99857.63;31166912;28;20053;-71
2023/08/12 03:37:14;;;;;;;13.02;8.75;;;;;;;26.28;100.00;99883.88;31154150;28;20092;-74
2023/08/12 03:52:16;;;;;;;14.32;10.80;;;;;;;26.26;100.00;99876.06;31184665;28;20068;-73
2023/08/12 04:07:18;;;;;;;14.38;10.38;;;;;;;26.72;100.00;99907.38;31162374;28;20092;-74
2023/08/12 04:22:20;;;;;;;16.48;10.57;;;;;;;26.70;100.00;99915.53;31162255;28;20076;-75
2023/08/12 04:37:24;;;;;;;14.68;9.48;;;;;;;27.23;100.00;99949.72;31159669;28;20088;-73
2023/08/12 04:52:26;;;;;;;13.90;10.15;;;;;;;27.06;100.00;99968.81;31115930;28;20088;-73
2023/08/12 05:07:28;;;;;;;15.47;10.97;;;;;;;26.97;100.00;99944.16;31140931;28;20460;-73
2023/08/12 05:22:30;;;;;;;13.25;8.48;;;;;;;27.49;100.00;99971.97;31194021;28;20046;-74
2023/08/12 05:37:32;;;;;;;8.73;7.17;;;;;;;27.81;100.00;100040.81;31208048;28;20409;-75
2023/08/12 05:52:34;;;;;;;10.70;8.33;;;;;;;28.47;100.00;100043.38;31231962;28;20506;-74
2023/08/12 06:07:36;;;;;;;6.80;6.10;;;;;;;28.74;100.00;100083.09;31162059;28;20081;-75
2023/08/12 06:22:38;;;;;;;10.13;6.80;;;;;;;29.38;100.00;100100.00;31199535;28;20076;-76
2023/08/12 06:37:41;;;;;;;8.17;5.67;;;;;;;30.02;100.00;100138.44;31169379;28;20482;-75
2023/08/12 06:52:43;;;;;;;6.55;4.90;;;;;;;30.06;100.00;100172.41;31159399;28;20068;-75
2023/08/12 07:07:45;;;;;;;5.13;4.17;;;;;;;30.32;100.00;100149.00;31174944;28;20188;-78
2023/08/12 07:22:47;;;;;;;5.97;5.22;;;;;;;31.24;100.00;100194.03;31199598;28;20053;-75
2023/08/12 07:37:49;;;;;;;5.53;4.05;;;;;;;32.06;100.00;100242.25;31183985;28;20057;-76
2023/08/12 07:52:52;;;;;;;6.65;4.72;;;;;;;32.47;100.00;100288.75;31156324;28;20053;-74
2023/08/12 08:07:53;;;;;;;5.15;4.40;;;;;;;32.80;100.00;100295.22;31127843;28;20058;-73
2023/08/12 08:22:56;;;;;;;4.40;3.25;;;;;;;33.51;100.00;100288.03;31175730;28;20073;-75
2023/08/12 08:37:58;;;;;;;5.97;3.20;;;;;;;34.49;92.18;100333.50;31191714;28;20053;-74
2023/08/12 08:53:02;;;;;;;3.47;3.17;;;;;;;33.94;100.00;100328.22;31179362;28;20084;-74
2023/08/12 09:08:10;;;;;;;4.00;2.53;;;;;;;35.17;88.14;100350.91;31112847;28;20519;-75
2023/08/12 09:23:14;;;;;;;3.50;3.13;;;;;;;35.65;96.76;100347.59;31107703;28;20048;-73
2023/08/12 09:38:16;;;;;;;3.75;3.05;;;;;;;36.11;82.78;100376.59;31118987;28;20534;-74
2023/08/12 09:53:18;;;;;;;5.18;3.10;;;;;;;36.73;77.46;100393.94;31118308;28;20695;-73
2023/08/12 10:08:20;;;;;;;3.83;2.13;;;;;;;37.21;81.79;100390.31;31171303;28;20092;-74
2023/08/12 10:23:24;;;;;;;3.58;2.70;;;;;;;37.05;64.84;100386.31;31182822;28;20100;-74
2023/08/12 10:38:26;;;;;;;3.65;2.85;;;;;;;37.58;74.73;100392.88;31156804;28;20053;-73
2023/08/12 10:53:33;;;;;;;4.45;2.95;;;;;;;37.81;71.33;100390.25;31154546;28;20543;-74
2023/08/12 11:08:35;;;;;;;3.83;2.85;;;;;;;36.84;70.04;100401.84;31130758;28;20096;-73
2023/08/12 11:23:39;;;;;;;5.55;3.03;;;;;;;38.05;62.18;100406.09;31131971;28;20633;-74
2023/08/12 11:38:42;;;;;;;5.20;3.67;;;;;;;37.31;70.18;100404.47;31129803;28;20057;-75
2023/08/12 11:53:44;;;;;;;13.10;10.07;;;;;;;35.77;71.99;100399.38;31101256;28;20519;-75
2023/08/12 12:08:46;;;;;;;12.95;7.05;;;;;;;34.88;70.07;100407.13;31107505;28;20451;-74
2023/08/12 12:23:52;;;;;;;5.00;4.30;;;;;;;34.41;73.53;100413.81;31143138;28;20053;-71
2023/08/12 12:38:54;;;;;;;6.97;3.70;;;;;;;33.56;79.82;100415.75;31130969;28;20522;-72
2023/08/12 12:53:56;;;;;;;10.32;5.82;;;;;;;33.47;75.83;100411.50;31127714;28;20077;-72
2023/08/12 13:08:58;;;;;;;5.72;3.95;;;;;;;33.24;85.32;100405.22;31118606;28;20081;-74
2023/08/12 13:24:03;;;;;;;6.82;3.95;;;;;;;33.02;91.70;100392.00;31135121;28;20096;-72
2023/08/12 13:39:05;;;;;;;5.25;4.20;;;;;;;32.85;90.01;100393.38;31161703;28;20084;-73
2023/08/12 13:54:07;;;;;;;5.88;3.60;;;;;;;32.77;88.52;100397.53;31157480;28;20077;-73
2023/08/12 14:09:11;;;;;;;9.05;3.75;;;;;;;32.43;88.01;100404.31;31132319;28;20140;-74
2023/08/12 14:24:14;;;;;;;9.82;5.68;;;;;;;32.21;87.90;100402.28;31140802;28;20057;-73
2023/08/12 14:39:16;;;;;;;7.32;4.05;;;;;;;32.20;88.23;100404.34;31138352;28;20144;-74
2023/08/12 14:54:18;;;;;;;6.72;3.72;;;;;;;32.02;88.51;100405.47;31140631;28;20085;-74
2023/08/12 15:09:20;;;;;;;7.13;4.15;;;;;;;31.88;90.86;100417.44;31119065;28;20471;-73
2023/08/12 15:24:22;;;;;;;4.13;3.53;;;;;;;31.69;84.87;100429.00;31134889;28;20056;-73
2023/08/12 15:39:24;;;;;;;48.47;35.33;;;;;;;31.54;84.92;100436.06;31128752;28;20053;-74
2023/08/12 15:54:27;;;;;;;6.90;4.03;;;;;;;31.46;83.44;100435.28;31116192;28;20542;-73
2023/08/12 16:09:30;;;;;;;5.20;3.22;;;;;;;31.36;84.57;100431.50;31099364;28;20129;-73
2023/08/12 16:24:32;;;;;;;5.35;3.63;;;;;;;30.97;85.58;100457.09;31117226;28;20517;-73
2023/08/12 16:39:34;;;;;;;6.47;4.90;;;;;;;30.66;87.99;100462.53;31128124;28;20403;-74
2023/08/12 16:54:36;;;;;;;5.18;3.70;;;;;;;30.34;88.87;100470.47;31113058;28;20054;-75
2023/08/12 17:09:38;;;;;;;7.05;4.00;;;;;;;30.39;89.06;100486.41;31097273;28;20100;-71
2023/08/12 17:24:40;;;;;;;5.75;3.75;;;;;;;30.05;91.80;100490.00;31110341;28;20080;-75
2023/08/12 17:39:43;;;;;;;13.98;9.32;;;;;;;29.99;94.91;100503.41;31109044;28;20116;-74
2023/08/12 17:54:45;;;;;;;9.35;6.53;;;;;;;29.76;95.02;100510.78;31144665;28;20515;-74
2023/08/12 18:09:47;;;;;;;;;;;;;;;29.52;85.20;100525.78;31095276;28;20054;-74
2023/08/12 18:24:49;;;;;;;13.63;6.75;;;;;;;29.44;99.43;100500.50;31098883;28;20306;-76
2023/08/12 18:39:51;;;;;;;12.93;8.87;;;;;;;29.33;100.00;100500.69;31139688;28;20145;-75
2023/08/12 18:54:53;;;;;;;11.93;6.70;;;;;;;29.30;100.00;100501.78;31140250;28;20160;-74
2023/08/12 19:09:55;;;;;;;9.70;6.70;;;;;;;29.01;100.00;100508.47;31146100;28;20105;-74
2023/08/12 19:24:57;;;;;;;17.60;12.20;;;;;;;29.09;99.71;100510.06;31136008;28;20108;-74
2023/08/12 19:39:59;;;;;;;9.33;7.30;;;;;;;29.23;96.13;100530.41;31135539;28;20064;-74
2023/08/12 19:55:05;;;;;;;6.13;4.83;;;;;;;29.26;92.04;100537.72;31122729;28;20058;-73
2023/08/12 20:10:07;;;;;;;8.82;5.60;;;;;;;29.27;92.75;100558.78;31105143;28;20081;-75
2023/08/12 20:25:09;;;;;;;13.82;10.88;;;;;;;28.21;96.90;100549.41;31138432;28;20099;-74
2023/08/12 20:40:13;;;;;;;11.10;6.43;;;;;;;28.08;100.00;100558.47;31127708;28;20078;-75
2023/08/12 20:55:15;;;;;;;10.15;5.82;;;;;;;27.84;100.00;100558.53;31112868;28;20089;-73
2023/08/12 21:10:17;;;;;;;7.33;6.07;;;;;;;27.97;100.00;100555.81;31115674;28;20081;-76
2023/08/12 21:25:19;;;;;;;8.70;5.73;;;;;;;27.65;100.00;100549.38;31136240;28;20057;-74
2023/08/12 21:40:23;;;;;;;10.00;6.50;;;;;;;27.59;100.00;100554.31;31129852;28;20088;-72
2023/08/12 21:55:25;;;;;;;10.27;6.47;;;;;;;27.70;100.00;100551.34;31130603;28;20144;-73
2023/08/12 22:10:27;;;;;;;12.40;8.53;;;;;;;27.67;100.00;100560.78;31134054;28;20478;-74
2023/08/12 22:25:29;;;;;;;13.73;7.57;;;;;;;27.38;100.00;100546.41;31134351;28;20093;-74
2023/08/12 22:40:31;;;;;;;13.60;10.17;;;;;;;27.61;100.00;100524.63;31139388;28;20414;-73
2023/08/12 22:55:33;;;;;;;15.40;8.30;;;;;;;27.70;100.00;100510.28;31138622;28;20157;-73
2023/08/12 23:10:35;;;;;;;10.00;7.07;;;;;;;27.54;100.00;100530.00;31121172;28;20152;-73
2023/08/12 23:25:37;;;;;;;14.85;9.25;;;;;;;27.03;100.00;100530.56;31133602;28;20081;-73
2023/08/12 23:40:39;;;;;;;12.05;7.40;;;;;;;26.72;100.00;100531.09;31128240;28;20057;-74
2023/08/12 23:55:41;;;;;;;12.75;7.90;;;;;;;26.63;100.00;100529.41;31143531;28;20053;-74
